Time;durP1;ratioP1;P1;durP2;ratioP2;P2;SDS_P1;SDS_P2;PMS_P1;PMS_P2;Temp;Humidity;BMP_temperature;BMP_pressure;BME280_temperature;BME280_humidity;BME280_pressure;Samples;Min_cycle;Max_cycle;Signal;HPM_P1;HPM_P2
2021/10/08 00:01:42;;;;;;;;;16.25;14.75;;;;;16.39;43.12;99578.94;4822026;28;102509;-87
2021/10/08 00:04:10;;;;;;;;;14.75;13.00;;;;;16.39;43.24;99575.38;4814484;28;104938;-87
2021/10/08 00:06:37;;;;;;;;;15.25;14.25;;;;;16.37;42.58;99577.47;4834362;28;102207;-87
2021/10/08 00:09:07;;;;;;;;;15.00;14.75;;;;;16.34;43.58;99577.91;4830995;28;102506;-87
2021/10/08 00:11:35;;;;;;;;;17.50;14.75;;;;;16.33;43.25;99579.81;4833370;28;104912;-87
2021/10/08 00:14:02;;;;;;;;;16.50;14.75;;;;;16.29;42.94;99575.81;4822068;28;108966;-87
2021/10/08 00:16:32;;;;;;;;;14.25;14.00;;;;;16.30;42.74;99572.03;4838647;28;102637;-87
2021/10/08 00:19:01;;;;;;;;;18.75;16.50;;;;;16.28;43.20;99565.13;4848769;28;102712;-88
2021/10/08 00:21:28;;;;;;;;;16.00;14.75;;;;;16.27;43.08;99577.91;4855886;28;102493;-87
2021/10/08 00:23:55;;;;;;;;;15.50;13.75;;;;;16.26;42.44;99569.94;4850960;28;104105;-87
2021/10/08 00:26:22;;;;;;;;;16.00;14.50;;;;;16.25;43.06;99576.47;4828975;28;102269;-88
2021/10/08 00:28:52;;;;;;;;;14.00;13.75;;;;;16.25;43.04;99584.66;4855417;28;103114;-87
2021/10/08 00:31:21;;;;;;;;;19.50;15.25;;;;;16.21;42.45;99575.22;4836114;28;102558;-88
2021/10/08 00:33:49;;;;;;;;;15.75;13.75;;;;;16.21;43.02;99577.94;4838202;28;104119;-87
2021/10/08 00:36:16;;;;;;;;;18.75;14.75;;;;;16.19;42.39;99583.63;4853482;28;102232;-87
2021/10/08 00:38:43;;;;;;;;;18.50;16.00;;;;;16.18;42.07;99579.19;4820574;28;102669;-87
2021/10/08 00:41:11;;;;;;;;;13.00;11.00;;;;;16.16;42.28;99585.94;4841745;28;102659;-88
2021/10/08 00:43:40;;;;;;;;;15.00;14.00;;;;;16.16;42.63;99586.78;4835550;28;104114;-87
2021/10/08 00:46:09;;;;;;;;;16.00;14.00;;;;;16.13;42.09;99587.19;4834075;28;102521;-87
2021/10/08 00:48:37;;;;;;;;;17.00;14.50;;;;;16.10;42.32;99586.78;4839809;28;102537;-87
2021/10/08 00:51:04;;;;;;;;;15.50;15.00;;;;;16.06;42.31;99584.47;4842928;28;102392;-88
2021/10/08 00:53:33;;;;;;;;;18.50;15.25;;;;;16.06;42.27;99587.22;4843943;28;108939;-88
2021/10/08 00:56:01;;;;;;;;;13.00;12.25;;;;;16.02;41.80;99585.97;4825287;28;103266;-88
2021/10/08 00:58:32;;;;;;;;;15.00;14.75;;;;;16.01;41.90;99589.72;4836224;28;102227;-87
2021/10/08 01:00:59;;;;;;;;;15.75;13.75;;;;;16.01;42.43;99594.34;4822133;28;104450;-88
2021/10/08 01:03:27;;;;;;;;;14.75;13.50;;;;;15.98;42.46;99592.06;4804001;28;104349;-87
2021/10/08 01:05:55;;;;;;;;;16.00;14.25;;;;;15.96;42.16;99594.97;4784059;28;102714;-88
2021/10/08 01:08:22;;;;;;;;;19.25;14.25;;;;;15.96;42.46;99600.44;4818895;28;105236;-87
2021/10/08 01:10:51;;;;;;;;;14.00;13.00;;;;;15.96;41.65;99599.59;4813715;28;103426;-87
2021/10/08 01:13:18;;;;;;;;;15.00;14.75;;;;;15.93;41.88;99598.13;4832822;28;103367;-87
2021/10/08 01:15:46;;;;;;;;;21.25;14.75;;;;;15.91;42.02;99608.41;4844028;28;103024;-87
2021/10/08 01:18:18;;;;;;;;;14.50;13.75;;;;;15.93;41.91;99614.50;4829125;28;102443;-87
2021/10/08 01:20:45;;;;;;;;;16.50;15.00;;;;;15.91;42.16;99611.13;4843467;28;106187;-87
2021/10/08 01:23:14;;;;;;;;;16.00;14.25;;;;;15.89;41.80;99602.34;4847056;28;104881;-87
2021/10/08 01:25:42;;;;;;;;;15.25;13.25;;;;;15.88;42.05;99611.56;4834262;28;102225;-86
2021/10/08 01:28:10;;;;;;;;;12.75;11.25;;;;;15.86;41.75;99610.09;4846600;28;102532;-86
2021/10/08 01:30:37;;;;;;;;;14.50;14.00;;;;;15.84;41.63;99604.00;4853767;28;102695;-87
2021/10/08 01:33:05;;;;;;;;;15.75;13.50;;;;;15.82;41.82;99612.41;4837328;28;109578;-87
2021/10/08 01:35:33;;;;;;;;;17.25;15.50;;;;;15.83;41.72;99618.69;4833226;28;102663;-87
2021/10/08 01:38:01;;;;;;;;;15.75;13.50;;;;;15.77;41.19;99604.00;4852253;28;103411;-87
2021/10/08 01:40:29;;;;;;;;;15.75;13.50;;;;;15.77;41.54;99612.19;4817110;28;111411;-87
2021/10/08 01:42:57;;;;;;;;;16.00;14.25;;;;;15.75;41.53;99611.56;4824635;28;104493;-87
2021/10/08 01:45:25;;;;;;;;;14.00;13.00;;;;;15.75;41.55;99617.03;4849233;28;102510;-87
2021/10/08 01:47:54;;;;;;;;;14.25;14.00;;;;;15.74;41.89;99607.16;4820737;28;102362;-87
2021/10/08 01:50:23;;;;;;;;;18.75;14.75;;;;;15.69;41.63;99612.41;4839737;28;102811;-87
2021/10/08 01:52:50;;;;;;;;;16.00;14.00;;;;;15.71;41.10;99610.31;4848083;28;105188;-87
2021/10/08 01:55:18;;;;;;;;;16.75;13.50;;;;;15.71;41.62;99613.03;4844521;28;107135;-87
2021/10/08 01:57:45;;;;;;;;;13.50;13.00;;;;;15.68;40.96;99624.34;4837351;28;103923;-87
2021/10/08 02:00:12;;;;;;;;;18.25;11.25;;;;;15.67;40.82;99616.41;4849608;28;102599;-87
2021/10/08 02:02:39;;;;;;;;;15.25;13.50;;;;;15.65;40.88;99622.06;4845683;28;104015;-86
2021/10/08 02:05:06;;;;;;;;;12.00;11.00;;;;;15.62;41.50;99614.28;4834594;28;102563;-87
2021/10/08 02:07:33;;;;;;;;;15.50;13.25;;;;;15.61;41.06;99615.34;4847330;28;102775;-87
2021/10/08 02:10:00;;;;;;;;;11.25;10.25;;;;;15.61;41.36;99615.34;4846323;28;102452;-87
2021/10/08 02:12:27;;;;;;;;;13.00;13.00;;;;;15.59;40.96;99622.88;4833791;28;104155;-87
2021/10/08 02:14:54;;;;;;;;;14.00;14.00;;;;;15.59;40.97;99623.72;4845342;28;104069;-87
2021/10/08 02:17:21;;;;;;;;;14.75;13.50;;;;;15.56;41.51;99618.69;4838921;28;102351;-86
2021/10/08 02:19:48;;;;;;;;;13.75;12.75;;;;;15.55;41.08;99624.34;4839475;28;102393;-87
2021/10/08 02:22:15;;;;;;;;;14.75;13.25;;;;;15.53;40.68;99618.28;4842546;28;104058;-87
2021/10/08 02:24:43;;;;;;;;;15.00;12.75;;;;;15.51;40.85;99626.66;4832435;28;102413;-87
2021/10/08 02:27:10;;;;;;;;;14.75;13.75;;;;;15.48;41.10;99632.50;4842371;28;102571;-86
2021/10/08 02:29:38;;;;;;;;;12.75;12.25;;;;;15.48;40.60;99626.19;4837848;28;102586;-87
2021/10/08 02:32:06;;;;;;;;;14.75;13.50;;;;;15.44;40.93;99623.06;4846755;28;109230;-87
2021/10/08 02:34:33;;;;;;;;;19.00;15.25;;;;;15.44;40.81;99625.78;4841991;28;102469;-87
2021/10/08 02:37:00;;;;;;;;;16.50;14.00;;;;;15.42;40.63;99621.56;4848497;28;102495;-87
2021/10/08 02:39:27;;;;;;;;;15.50;14.50;;;;;15.42;40.74;99627.00;4819081;28;102546;-87
2021/10/08 02:41:54;;;;;;;;;16.00;15.00;;;;;15.38;40.52;99633.94;4839284;28;104268;-87
2021/10/08 02:44:21;;;;;;;;;20.00;16.50;;;;;15.36;40.93;99625.94;4837524;28;104431;-87
2021/10/08 02:46:48;;;;;;;;;14.50;13.75;;;;;15.37;40.54;99624.06;4843523;28;103448;-87
2021/10/08 02:49:21;;;;;;;;;14.75;13.25;;;;;15.37;40.86;99629.50;4827787;28;102305;-87
2021/10/08 02:51:49;;;;;;;;;13.00;11.75;;;;;15.34;40.53;99636.22;4836436;28;104088;-87
2021/10/08 02:54:16;;;;;;;;;15.50;15.00;;;;;15.33;40.53;99636.44;4830474;28;102771;-87
2021/10/08 02:56:43;;;;;;;;;12.75;12.75;;;;;15.31;40.42;99635.81;4841244;28;102488;-86
2021/10/08 02:59:10;;;;;;;;;16.50;14.25;;;;;15.29;40.27;99637.88;4833615;28;104101;-86
2021/10/08 03:01:37;;;;;;;;;17.50;16.25;;;;;15.28;40.39;99647.09;4849454;28;104883;-87
2021/10/08 03:04:05;;;;;;;;;15.25;14.50;;;;;15.24;40.18;99638.50;4831722;28;103877;-87
2021/10/08 03:06:32;;;;;;;;;17.75;16.00;;;;;15.23;40.35;99638.69;4842286;28;103550;-87
2021/10/08 03:08:59;;;;;;;;;18.75;15.25;;;;;15.21;40.30;99643.53;4846594;28;102493;-87
2021/10/08 03:11:26;;;;;;;;;16.75;12.00;;;;;15.17;40.49;99646.66;4839442;28;104480;-87
2021/10/08 03:13:53;;;;;;;;;13.50;13.00;;;;;15.16;40.49;99642.28;4832624;28;103928;-87
2021/10/08 03:16:20;;;;;;;;;16.00;14.25;;;;;15.14;40.01;99644.34;4853186;28;102523;-87
2021/10/08 03:18:47;;;;;;;;;17.00;13.75;;;;;15.13;40.00;99639.94;4844749;28;102695;-87
2021/10/08 03:21:14;;;;;;;;;17.00;14.00;;;;;15.13;40.41;99639.09;4843413;28;104274;-87
2021/10/08 03:23:41;;;;;;;;;17.00;16.00;;;;;15.13;39.95;99647.25;4852846;28;102207;-87
2021/10/08 03:26:08;;;;;;;;;14.25;13.00;;;;;15.11;40.27;99652.94;4847009;28;102241;-87
2021/10/08 03:28:35;;;;;;;;;14.25;13.25;;;;;15.08;39.87;99658.78;4845702;28;102604;-87
2021/10/08 03:31:03;;;;;;;;;16.00;12.75;;;;;15.08;39.99;99649.78;4839171;28;103910;-87
2021/10/08 03:33:30;;;;;;;;;17.25;13.25;;;;;15.06;39.96;99655.44;4812429;28;102515;-87
2021/10/08 03:35:57;;;;;;;;;15.25;14.25;;;;;15.04;40.21;99657.50;4840661;28;104022;-87
2021/10/08 03:38:25;;;;;;;;;17.25;13.25;;;;;15.05;40.08;99658.34;4828548;28;103790;-87
2021/10/08 03:41:05;;;;;;;;;17.50;12.25;;;;;15.03;40.00;99660.44;4840516;28;104056;-87
2021/10/08 03:43:32;;;;;;;;;14.75;13.25;;;;;15.02;39.90;99664.22;4843157;28;105445;-87
2021/10/08 03:46:05;;;;;;;;;12.50;12.50;;;;;14.99;39.59;99662.75;4843552;28;103908;-87
2021/10/08 03:51:01;;;;;;;;;15.25;12.25;;;;;14.96;39.98;99675.91;4844572;28;104093;-87
2021/10/08 03:53:28;;;;;;;;;15.25;13.75;;;;;14.93;40.11;99665.44;4848965;28;103215;-87
2021/10/08 03:55:55;;;;;;;;;15.00;12.75;;;;;14.93;39.83;99670.88;4842646;28;102484;-87
2021/10/08 03:58:22;;;;;;;;;13.25;12.50;;;;;14.90;39.63;99674.88;4836065;28;102609;-87
2021/10/08 04:00:49;;;;;;;;;16.50;13.00;;;;;14.88;39.81;99676.94;4837964;28;106166;-87
2021/10/08 04:03:16;;;;;;;;;16.00;13.00;;;;;14.87;39.65;99675.25;4820100;28;102393;-87
2021/10/08 04:05:43;;;;;;;;;13.75;12.25;;;;;14.85;39.46;99674.63;4829404;28;102262;-87
2021/10/08 04:08:10;;;;;;;;;14.25;13.25;;;;;14.83;39.62;99676.69;4845048;28;102561;-87
2021/10/08 04:10:37;;;;;;;;;11.75;11.25;;;;;14.82;39.93;99685.06;4848610;28;103864;-87
2021/10/08 04:13:04;;;;;;;;;19.00;16.50;;;;;14.78;39.06;99684.63;4840342;28;106968;-87
2021/10/08 04:15:31;;;;;;;;;13.50;12.00;;;;;14.76;39.15;99681.28;4836712;28;103423;-87
2021/10/08 04:17:58;;;;;;;;;14.00;13.50;;;;;14.78;39.85;99681.91;4833523;28;103586;-87
2021/10/08 04:20:26;;;;;;;;;15.75;15.00;;;;;14.77;39.81;99682.13;4833813;28;104557;-87
2021/10/08 04:22:53;;;;;;;;;15.25;15.25;;;;;14.73;39.34;99681.66;4837738;28;103110;-87
2021/10/08 04:25:20;;;;;;;;;15.75;14.25;;;;;14.74;39.59;99694.25;4832772;28;103679;-87
2021/10/08 04:27:47;;;;;;;;;9.50;9.00;;;;;14.73;39.35;99692.56;4829346;28;103530;-87
2021/10/08 04:30:14;;;;;;;;;13.50;12.75;;;;;14.72;39.76;99693.63;4835406;28;102897;-88
2021/10/08 04:32:41;;;;;;;;;16.25;13.00;;;;;14.70;39.32;99690.25;4842133;28;102766;-87
2021/10/08 04:35:08;;;;;;;;;17.00;13.00;;;;;14.68;39.82;99689.59;4834084;28;102464;-88
2021/10/08 04:37:36;;;;;;;;;16.00;12.50;;;;;14.66;39.46;99687.09;4841504;28;102541;-87
2021/10/08 04:40:04;;;;;;;;;14.75;12.00;;;;;14.66;39.29;99697.13;4843038;28;104120;-88
2021/10/08 04:42:32;;;;;;;;;17.25;14.75;;;;;14.63;38.99;99700.25;4845861;28;102417;-87
2021/10/08 04:45:00;;;;;;;;;15.00;12.75;;;;;14.62;39.14;99701.28;4840029;28;102890;-87
2021/10/08 04:47:27;;;;;;;;;16.75;11.50;;;;;14.59;38.97;99707.97;4843855;28;103734;-88
2021/10/08 04:49:54;;;;;;;;;12.75;12.50;;;;;14.58;39.63;99705.47;4824939;28;104141;-87
2021/10/08 04:52:21;;;;;;;;;18.75;15.75;;;;;14.57;39.14;99714.66;4843790;28;103513;-87
2021/10/08 04:54:48;;;;;;;;;13.25;11.50;;;;;14.56;39.43;99712.97;4847583;28;103363;-87
2021/10/08 04:57:15;;;;;;;;;12.50;11.75;;;;;14.55;39.47;99719.44;4849952;28;104606;-87
2021/10/08 04:59:41;;;;;;;;;19.00;16.00;;;;;14.51;39.07;99719.00;4843549;28;110000;-88
2021/10/08 05:02:08;;;;;;;;;17.00;15.25;;;;;14.51;39.38;99710.00;4843422;28;102436;-87
2021/10/08 05:04:35;;;;;;;;;16.00;14.25;;;;;14.51;39.29;99723.63;4847481;28;102169;-87
2021/10/08 05:07:03;;;;;;;;;17.25;15.25;;;;;14.48;39.32;99724.03;4823808;28;102733;-87
2021/10/08 05:09:30;;;;;;;;;19.50;15.75;;;;;14.45;38.85;99722.56;4845978;28;111902;-88
2021/10/08 05:11:57;;;;;;;;;16.25;14.75;;;;;14.44;38.87;99722.75;4844477;28;102585;-87
2021/10/08 05:14:23;;;;;;;;;15.75;14.00;;;;;14.41;39.38;99718.50;4841148;28;103555;-88
2021/10/08 05:16:50;;;;;;;;;19.75;17.00;;;;;14.39;39.39;99717.88;4847541;28;102727;-87
2021/10/08 05:19:19;;;;;;;;;17.75;15.00;;;;;14.39;39.12;99723.34;4868983;28;104081;-87
2021/10/08 05:21:48;;;;;;;;;16.75;15.25;;;;;14.39;39.48;99723.34;4857227;28;102478;-87
2021/10/08 05:24:15;;;;;;;;;17.75;15.00;;;;;14.36;39.32;99722.91;4865686;28;102685;-86
2021/10/08 05:26:42;;;;;;;;;15.00;14.75;;;;;14.35;39.10;99732.91;4869983;28;102297;-87
2021/10/08 05:29:09;;;;;;;;;17.50;15.00;;;;;14.35;39.04;99737.50;4855578;28;105292;-88
2021/10/08 05:31:36;;;;;;;;;14.75;14.50;;;;;14.34;38.65;99743.97;4862785;28;102455;-88
2021/10/08 05:34:03;;;;;;;;;17.00;16.75;;;;;14.30;39.36;99736.22;4865076;28;102882;-88
2021/10/08 05:36:31;;;;;;;;;13.25;11.00;;;;;14.29;38.84;99739.97;4857713;28;102491;-88
2021/10/08 05:38:58;;;;;;;;;19.50;17.50;;;;;14.29;39.22;99745.41;4858758;28;104052;-88
2021/10/08 05:41:25;;;;;;;;;14.50;14.00;;;;;14.29;39.48;99750.84;4858736;28;104121;-88
2021/10/08 05:43:52;;;;;;;;;17.50;15.75;;;;;14.26;38.99;99745.81;4841628;28;102530;-88
2021/10/08 05:46:19;;;;;;;;;18.00;13.25;;;;;14.27;38.95;99758.34;4857046;28;102758;-87
2021/10/08 05:48:46;;;;;;;;;14.25;13.00;;;;;14.27;38.77;99757.53;4866924;28;104381;-88
2021/10/08 05:51:13;;;;;;;;;14.25;14.25;;;;;14.25;38.84;99757.72;4858015;28;102044;-88
2021/10/08 05:53:40;;;;;;;;;16.00;15.00;;;;;14.23;39.36;99756.22;4853985;28;103542;-88
2021/10/08 05:56:08;;;;;;;;;16.00;15.50;;;;;14.19;38.75;99753.06;4846800;28;103527;-88
2021/10/08 05:58:35;;;;;;;;;15.25;11.75;;;;;14.19;39.37;99755.78;4855337;28;104138;-88
2021/10/08 06:01:03;;;;;;;;;13.50;12.25;;;;;14.17;39.05;99760.59;4854658;28;102389;-88
2021/10/08 06:03:31;;;;;;;;;19.50;14.50;;;;;14.17;38.97;99763.31;4866127;28;102084;-88
2021/10/08 06:05:58;;;;;;;;;17.25;15.25;;;;;14.14;38.91;99774.56;4857427;28;102538;-88
2021/10/08 06:08:26;;;;;;;;;19.50;15.50;;;;;14.13;38.78;99772.06;4858955;28;104714;-88
2021/10/08 06:10:54;;;;;;;;;16.50;15.75;;;;;14.12;39.65;99771.22;4843707;28;103811;-88
2021/10/08 06:13:22;;;;;;;;;16.75;15.25;;;;;14.12;39.28;99775.81;4861004;28;104642;-88
2021/10/08 06:15:50;;;;;;;;;19.25;14.50;;;;;14.09;38.93;99777.06;4853288;28;103490;-88
2021/10/08 06:18:17;;;;;;;;;19.00;15.50;;;;;14.11;38.86;99788.56;4846623;28;105330;-87
2021/10/08 06:20:45;;;;;;;;;17.75;16.00;;;;;14.09;39.01;99787.94;4847731;28;102487;-88
2021/10/08 06:23:12;;;;;;;;;17.75;17.00;;;;;14.08;38.92;99788.97;4842268;28;102301;-88
2021/10/08 06:25:40;;;;;;;;;18.75;15.25;;;;;14.07;39.94;99790.00;4839963;28;103354;-88
2021/10/08 06:28:07;;;;;;;;;18.25;15.25;;;;;14.09;39.41;99793.38;4845765;28;103070;-88
2021/10/08 06:30:35;;;;;;;;;16.50;16.00;;;;;14.09;39.14;99796.09;4845538;28;103619;-88
2021/10/08 06:33:02;;;;;;;;;18.00;14.00;;;;;14.05;39.36;99797.50;4838878;28;102373;-87
2021/10/08 06:35:32;;;;;;;;;18.75;17.00;;;;;14.05;39.81;99793.94;4845892;28;104062;-88
2021/10/08 06:38:00;;;;;;;;;17.00;15.75;;;;;14.04;39.17;99800.41;4837774;28;104096;-88
2021/10/08 06:40:28;;;;;;;;;17.25;15.75;;;;;14.02;40.08;99800.59;4817259;28;102701;-88
2021/10/08 06:42:56;;;;;;;;;16.00;14.75;;;;;14.03;39.43;99804.16;4835135;28;102411;-88
2021/10/08 06:45:25;;;;;;;;;17.50;16.25;;;;;14.01;39.33;99801.63;4836194;28;102324;-88
2021/10/08 06:47:53;;;;;;;;;15.50;14.00;;;;;14.00;39.96;99802.69;4839804;28;103507;-87
2021/10/08 06:50:20;;;;;;;;;16.75;14.00;;;;;14.00;39.92;99816.28;4847953;28;102590;-87
2021/10/08 06:52:48;;;;;;;;;17.75;16.25;;;;;14.00;40.00;99804.56;4838856;28;102233;-87
2021/10/08 06:55:15;;;;;;;;;18.50;16.75;;;;;13.99;39.14;99806.44;4845523;28;102380;-87
2021/10/08 06:57:42;;;;;;;;;19.25;16.25;;;;;13.98;39.49;99812.06;4847863;28;108730;-87
2021/10/08 07:00:09;;;;;;;;;15.50;15.50;;;;;13.99;39.53;99820.03;4840399;28;102607;-87
2021/10/08 07:02:50;;;;;;;;;15.00;14.00;;;;;14.00;40.12;99810.84;4839824;28;102589;-87
2021/10/08 07:05:18;;;;;;;;;14.50;14.00;;;;;13.99;39.83;99817.31;4843460;28;104010;-86
2021/10/08 07:07:45;;;;;;;;;18.50;16.00;;;;;13.99;39.76;99820.03;4828144;28;104189;-87
2021/10/08 07:10:12;;;;;;;;;16.25;14.25;;;;;13.97;40.35;99816.66;4838935;28;102697;-87
2021/10/08 07:12:40;;;;;;;;;16.50;16.25;;;;;13.98;39.88;99821.06;4845816;28;102493;-88
2021/10/08 07:15:15;;;;;;;;;17.50;16.00;;;;;13.98;40.62;99823.78;4848485;28;103369;-87
2021/10/08 07:17:49;;;;;;;;;17.00;15.25;;;;;13.96;40.03;99825.84;4840872;28;108998;-87
2021/10/08 07:20:18;;;;;;;;;19.25;17.25;;;;;13.95;40.09;99821.47;4845499;28;102503;-87
2021/10/08 07:22:45;;;;;;;;;15.75;15.00;;;;;13.96;40.15;99831.28;4820244;28;102392;-87
2021/10/08 07:25:12;;;;;;;;;20.00;17.00;;;;;13.95;40.54;99829.63;4838649;28;102815;-87
2021/10/08 07:27:40;;;;;;;;;15.50;15.25;;;;;13.95;40.74;99829.63;4841190;28;103973;-88
2021/10/08 07:30:08;;;;;;;;;14.00;12.75;;;;;13.96;40.08;99836.72;4844913;28;103034;-87
2021/10/08 07:32:35;;;;;;;;;17.25;14.75;;;;;13.93;40.13;99826.25;4839672;28;103225;-87
2021/10/08 07:35:03;;;;;;;;;15.00;14.75;;;;;13.91;40.92;99828.31;4834189;28;102682;-87
2021/10/08 07:37:30;;;;;;;;;17.50;15.00;;;;;13.91;40.71;99833.75;4827010;28;104267;-87
2021/10/08 07:39:57;;;;;;;;;17.00;15.25;;;;;13.93;40.63;99830.84;4812962;28;103969;-87
2021/10/08 07:42:24;;;;;;;;;15.75;14.00;;;;;13.92;40.45;99837.28;4841445;28;102410;-87
2021/10/08 07:44:54;;;;;;;;;18.25;16.50;;;;;13.93;41.31;99834.41;4841919;28;102862;-87
2021/10/08 07:47:21;;;;;;;;;15.50;14.75;;;;;13.94;41.44;99837.97;4841259;28;104281;-87
2021/10/08 07:49:48;;;;;;;;;16.00;13.50;;;;;13.95;41.79;99837.78;4837927;28;102681;-86
2021/10/08 07:52:15;;;;;;;;;16.50;15.00;;;;;13.96;41.45;99836.72;4853132;28;102251;-87
2021/10/08 07:54:42;;;;;;;;;14.75;13.50;;;;;13.96;41.91;99835.91;4841831;28;102599;-87
2021/10/08 07:57:09;;;;;;;;;16.00;14.00;;;;;13.97;41.76;99837.56;4849996;28;105525;-87
2021/10/08 07:59:36;;;;;;;;;13.25;12.25;;;;;13.96;41.44;99850.31;4845309;28;105892;-87
2021/10/08 08:02:04;;;;;;;;;16.00;15.50;;;;;13.98;41.50;99837.38;4842588;28;102574;-87
2021/10/08 08:04:31;;;;;;;;;14.25;13.25;;;;;13.99;41.45;99840.94;4831395;28;102225;-87
2021/10/08 08:06:58;;;;;;;;;7.00;6.00;;;;;13.96;41.27;99839.44;4843326;28;103642;-87
2021/10/08 08:09:25;;;;;;;;;14.00;13.25;;;;;13.99;42.16;99840.94;4845666;28;102120;-87
2021/10/08 08:11:52;;;;;;;;;11.00;11.00;;;;;14.00;42.15;99842.63;4842113;28;104909;-88
2021/10/08 08:14:19;;;;;;;;;13.75;10.75;;;;;14.01;41.78;99849.75;4864329;28;102658;-86
2021/10/08 08:16:46;;;;;;;;;13.75;11.00;;;;;14.02;41.67;99846.00;4858585;28;104383;-87
2021/10/08 08:19:14;;;;;;;;;13.75;12.00;;;;;14.02;42.26;99846.00;4863068;28;102471;-87
2021/10/08 08:21:42;;;;;;;;;13.75;12.75;;;;;14.00;42.15;99854.38;4863330;28;102020;-87
2021/10/08 08:24:09;;;;;;;;;13.25;11.25;;;;;14.00;42.62;99859.81;4861138;28;102610;-87
2021/10/08 08:26:37;;;;;;;;;12.50;12.00;;;;;14.02;42.27;99855.00;4841342;28;104084;-87
2021/10/08 08:29:04;;;;;;;;;15.00;13.75;;;;;14.03;42.88;99851.25;4860792;28;103115;-87
2021/10/08 08:31:32;;;;;;;;;13.00;10.50;;;;;14.04;42.98;99850.22;4865555;28;103134;-87
2021/10/08 08:33:59;;;;;;;;;12.75;11.50;;;;;14.05;42.78;99857.31;4865991;28;102466;-87
2021/10/08 08:36:26;;;;;;;;;15.50;13.50;;;;;14.05;42.42;99849.16;4848507;28;104286;-87
2021/10/08 08:38:53;;;;;;;;;13.25;12.25;;;;;14.08;43.06;99856.09;4860717;28;102450;-87
2021/10/08 08:41:20;;;;;;;;;11.25;10.00;;;;;14.08;43.16;99851.50;4860122;28;102312;-86
2021/10/08 08:43:59;;;;;;;;;14.25;13.00;;;;;14.10;43.06;99857.59;4864213;28;110862;-87
2021/10/08 08:46:27;;;;;;;;;13.00;10.25;;;;;14.10;43.73;99849.44;4847023;28;104254;-87
2021/10/08 08:48:54;;;;;;;;;10.50;9.00;;;;;14.14;42.86;99860.75;4837843;28;102349;-87
2021/10/08 08:51:25;;;;;;;;;14.25;13.00;;;;;14.13;43.12;99853.66;4862485;28;102534;-87
2021/10/08 08:53:53;;;;;;;;;15.00;14.50;;;;;14.14;43.17;99853.44;4866195;28;102924;-86
2021/10/08 08:56:20;;;;;;;;;15.00;13.50;;;;;14.15;43.40;99855.13;4860837;28;104291;-87
2021/10/08 08:58:47;;;;;;;;;13.00;13.00;;;;;14.16;43.74;99854.09;4861545;28;102350;-87
2021/10/08 09:01:14;;;;;;;;;15.50;14.75;;;;;14.18;43.97;99853.94;4854433;28;102720;-87
2021/10/08 09:03:59;;;;;;;;;12.50;12.25;;;;;14.19;44.37;99853.72;4831628;28;102698;-87
2021/10/08 09:06:34;;;;;;;;;16.00;13.75;;;;;14.19;44.33;99859.16;4843264;28;108541;-87
2021/10/08 09:09:20;;;;;;;;;12.75;11.50;;;;;14.23;44.40;99855.00;4863794;28;102669;-87
2021/10/08 09:11:47;;;;;;;;;14.50;12.50;;;;;14.25;44.02;99852.09;4864687;28;102293;-87
2021/10/08 09:14:16;;;;;;;;;14.50;12.50;;;;;14.27;44.25;99853.56;4860000;28;105454;-87
2021/10/08 09:17:16;;;;;;;;;13.25;11.25;;;;;14.27;44.85;99845.41;4852833;28;104194;-87
2021/10/08 09:19:52;;;;;;;;;13.25;12.75;;;;;14.32;44.17;99852.19;4852092;28;102224;-87
2021/10/08 09:22:29;;;;;;;;;11.00;9.75;;;;;14.31;44.96;99851.34;4845062;28;102696;-87
2021/10/08 09:25:41;;;;;;;;;13.25;11.00;;;;;14.32;45.01;99844.81;4833259;28;102843;-87
2021/10/08 09:28:09;;;;;;;;;12.25;10.75;;;;;14.34;44.67;99839.19;4838386;28;108916;-87
2021/10/08 09:30:48;;;;;;;;;13.75;11.75;;;;;14.36;44.69;99842.63;4856155;28;102319;-87
2021/10/08 09:33:19;;;;;;;;;9.50;8.00;;;;;14.37;44.81;99838.84;4842614;28;104306;-87
2021/10/08 09:35:48;;;;;;;;;11.50;10.50;;;;;14.37;45.47;99838.84;4838181;28;102711;-87
2021/10/08 09:38:16;;;;;;;;;15.75;13.25;;;;;14.38;44.86;99832.38;4841865;28;104118;-87
2021/10/08 09:40:51;;;;;;;;;14.00;12.00;;;;;14.38;44.96;99830.50;4846323;28;103036;-87
2021/10/08 09:43:25;;;;;;;;;14.75;12.00;;;;;14.42;45.49;99839.09;4821500;28;103437;-87
2021/10/08 09:45:56;;;;;;;;;10.00;9.00;;;;;14.41;45.07;99840.97;4847989;28;102809;-87
2021/10/08 09:48:26;;;;;;;;;10.00;9.75;;;;;14.44;45.01;99842.47;4846483;28;103890;-87
2021/10/08 09:51:01;;;;;;;;;10.00;9.00;;;;;14.45;45.08;99830.56;4834325;28;102293;-87
2021/10/08 09:53:29;;;;;;;;;10.00;9.75;;;;;14.47;45.72;99842.91;4847192;28;103272;-87
2021/10/08 09:55:56;;;;;;;;;9.25;8.50;;;;;14.48;45.44;99841.03;4853950;28;102649;-87
2021/10/08 09:58:23;;;;;;;;;12.00;9.50;;;;;14.51;45.88;99846.09;4824874;28;104060;-86
2021/10/08 10:01:01;;;;;;;;;9.50;9.50;;;;;14.54;45.29;99840.28;4815901;28;105240;-87
2021/10/08 10:03:29;;;;;;;;;10.00;9.50;;;;;14.54;45.39;99840.28;4841997;28;102197;-87
2021/10/08 10:06:01;;;;;;;;;11.25;10.25;;;;;14.53;45.90;99838.59;4836620;28;102589;-88
2021/10/08 10:08:28;;;;;;;;;10.00;9.25;;;;;14.54;45.96;99837.56;4845254;28;104087;-87
2021/10/08 10:10:56;;;;;;;;;12.00;8.75;;;;;14.55;45.79;99836.50;4844340;28;102529;-87
2021/10/08 10:13:23;;;;;;;;;11.00;10.00;;;;;14.56;45.67;99839.03;4847094;28;102468;-87
2021/10/08 10:15:50;;;;;;;;;11.00;10.00;;;;;14.59;45.91;99848.69;4849227;28;102516;-87
2021/10/08 10:18:19;;;;;;;;;8.75;8.75;;;;;14.61;45.89;99847.44;4858517;28;109138;-88
2021/10/08 10:20:48;;;;;;;;;10.00;9.50;;;;;14.61;45.38;99843.88;4867427;28;102542;-88
2021/10/08 10:23:16;;;;;;;;;10.25;9.50;;;;;14.63;45.42;99852.72;4857770;28;102470;-88
2021/10/08 10:25:44;;;;;;;;;11.25;9.75;;;;;14.65;45.56;99848.72;4864979;28;102494;-87
2021/10/08 10:28:11;;;;;;;;;10.00;8.00;;;;;14.67;45.94;99851.28;4849256;28;104090;-87
2021/10/08 10:30:42;;;;;;;;;10.00;9.00;;;;;14.69;45.50;99849.19;4836960;28;102213;-88
2021/10/08 10:33:10;;;;;;;;;11.25;10.50;;;;;14.70;45.80;99842.69;4822815;28;103521;-88
2021/10/08 10:35:44;;;;;;;;;7.00;6.50;;;;;14.73;45.37;99847.75;4843445;28;102576;-87
2021/10/08 10:38:28;;;;;;;;;9.75;8.50;;;;;14.77;45.96;99850.94;4851639;28;104202;-88
2021/10/08 10:41:08;;;;;;;;;7.00;7.00;;;;;14.78;45.69;99853.44;4851403;28;107191;-87
2021/10/08 10:43:40;;;;;;;;;10.50;9.25;;;;;14.81;45.78;99855.78;4856019;28;102479;-87
2021/10/08 10:49:57;;;;;;;;;9.25;7.00;;;;;14.85;45.82;99848.06;4850078;28;108710;-87
2021/10/08 10:52:02;;;;;;;;;9.25;8.00;;;;;14.86;45.80;99839.66;4842661;28;104357;-87
2021/10/08 10:54:41;;;;;;;;;10.00;9.50;;;;;14.87;45.44;99841.34;4851887;28;103815;-87
2021/10/08 10:57:32;;;;;;;;;8.00;8.00;;;;;14.91;45.50;99848.09;4858289;28;102316;-87
2021/10/08 11:00:29;;;;;;;;;8.00;8.00;;;;;14.95;45.83;99841.19;4848925;28;108885;-87
2021/10/08 11:03:12;;;;;;;;;9.50;8.00;;;;;14.99;45.88;99850.69;4851520;28;103661;-86
2021/10/08 11:06:03;;;;;;;;;10.50;8.50;;;;;15.00;45.93;99852.34;4824721;28;102396;-88
2021/10/08 11:08:30;;;;;;;;;8.75;8.75;;;;;15.03;45.71;99857.41;4854678;28;102748;-87
2021/10/08 11:11:00;;;;;;;;;9.00;8.00;;;;;15.05;45.95;99854.47;4859688;28;104100;-87
2021/10/08 11:13:35;;;;;;;;;9.25;9.00;;;;;15.05;45.98;99849.88;4856675;28;102548;-87
2021/10/08 11:16:07;;;;;;;;;8.25;7.50;;;;;15.07;46.05;99852.41;4858734;28;102412;-87
2021/10/08 11:18:45;;;;;;;;;8.00;5.00;;;;;15.06;46.04;99846.09;4841149;28;104285;-87
2021/10/08 11:21:25;;;;;;;;;7.25;5.50;;;;;15.10;45.81;99847.41;4820471;28;104291;-87
2021/10/08 11:24:18;;;;;;;;;9.00;8.00;;;;;15.11;45.85;99843.63;4837801;28;103446;-87
2021/10/08 11:26:57;;;;;;;;;9.75;9.50;;;;;15.14;45.87;99848.69;4830710;28;102378;-87